Time;durP1;ratioP1;P1;durP2;ratioP2;P2;SDS_P1;SDS_P2;PMS_P1;PMS_P2;Temp;Humidity;BMP_temperature;BMP_pressure;BME280_temperature;BME280_humidity;BME280_pressure;Samples;Min_cycle;Max_cycle;Signal;HPM_P1;HPM_P2
2021/03/28 00:01:59;;;;;;;12.10;4.15;;;;;;;6.20;56.16;100801.63;5073846;28;20047;-85
2021/03/28 00:04:28;;;;;;;11.52;3.42;;;;;;;6.22;55.70;100811.16;5062801;28;20488;-86
2021/03/28 00:07:01;;;;;;;17.75;4.18;;;;;;;6.21;56.00;100808.56;5073356;28;20054;-85
2021/03/28 00:09:33;;;;;;;13.52;4.38;;;;;;;6.19;56.02;100806.00;5072445;28;20060;-86
2021/03/28 00:12:19;;;;;;;14.32;3.88;;;;;;;6.17;56.20;100809.53;5072669;28;20052;-86
2021/03/28 00:15:18;;;;;;;18.80;4.07;;;;;;;6.15;55.87;100808.69;5073184;28;20512;-85
2021/03/28 00:17:49;;;;;;;11.52;4.05;;;;;;;6.18;56.00;100808.63;5061440;28;20048;-86
2021/03/28 00:20:15;;;;;;;16.10;3.97;;;;;;;6.17;55.96;100797.31;5072135;28;20073;-85
2021/03/28 00:22:48;;;;;;;12.75;3.67;;;;;;;6.17;55.94;100791.25;5073532;28;20048;-85
2021/03/28 00:25:21;;;;;;;12.60;4.15;;;;;;;6.18;56.28;100795.56;5073205;28;20590;-86
2021/03/28 00:27:53;;;;;;;13.15;4.22;;;;;;;6.18;56.28;100795.56;5072319;28;20507;-86
2021/03/28 00:30:30;;;;;;;12.10;3.45;;;;;;;6.20;56.26;100788.56;5072517;28;20052;-86
2021/03/28 00:33:08;;;;;;;19.67;3.88;;;;;;;6.22;56.11;100789.38;5073520;28;20056;-86
2021/03/28 00:35:58;;;;;;;11.93;3.40;;;;;;;6.20;55.94;100791.19;5071954;28;20515;-86
2021/03/28 00:38:30;;;;;;;19.77;5.00;;;;;;;6.22;56.12;100792.88;5072388;28;20054;-85
2021/03/28 00:41:14;;;;;;;16.52;3.90;;;;;;;6.18;56.04;100785.97;5073482;28;20500;-86
2021/03/28 00:43:49;;;;;;;13.32;3.65;;;;;;;6.18;56.07;100782.50;5071799;28;20059;-87
2021/03/28 00:46:51;;;;;;;13.07;4.03;;;;;;;6.15;55.95;100777.31;5072137;28;20052;-86
2021/03/28 00:50:11;;;;;;;11.63;3.53;;;;;;;6.12;56.09;100786.09;5060165;28;20067;-86
2021/03/28 00:52:53;;;;;;;12.50;3.95;;;;;;;6.10;55.94;100780.91;5031430;28;20068;-86
2021/03/28 00:55:33;;;;;;;14.13;3.25;;;;;;;6.06;56.03;100774.00;5071950;28;20045;-85
2021/03/28 00:58:43;;;;;;;12.25;3.75;;;;;;;6.02;56.33;100767.09;5073232;28;20052;-85
2021/03/28 01:01:28;;;;;;;15.48;3.92;;;;;;;6.00;56.18;100758.44;5053624;28;20053;-86
2021/03/28 01:03:59;;;;;;;12.48;3.97;;;;;;;6.02;56.04;100774.09;5071523;28;20497;-86
2021/03/28 01:06:32;;;;;;;14.13;3.45;;;;;;;5.99;56.09;100768.03;5071998;28;20048;-86
2021/03/28 01:09:10;;;;;;;;;;;;;;;5.99;56.30;100767.19;5073575;28;20131;-86
2021/03/28 01:11:51;;;;;;;14.48;3.63;;;;;;;5.97;56.33;100766.34;5072051;28;19921;-86
2021/03/28 01:14:30;;;;;;;14.32;4.25;;;;;;;5.95;56.35;100755.06;5071485;28;20052;-85
2021/03/28 01:17:17;;;;;;;17.27;4.00;;;;;;;5.93;56.26;100762.94;5072111;28;20056;-86
2021/03/28 01:20:12;;;;;;;15.35;4.10;;;;;;;5.89;56.62;100760.41;5074309;28;20512;-86
2021/03/28 01:23:05;;;;;;;14.70;4.38;;;;;;;5.87;56.39;100756.09;5075787;28;20049;-86
2021/03/28 01:25:44;;;;;;;9.85;3.75;;;;;;;5.90;56.39;100756.94;5076403;28;20087;-86
2021/03/28 01:28:28;;;;;;;16.45;4.07;;;;;;;5.83;56.53;100743.97;5075685;28;20048;-86
2021/03/28 01:31:32;;;;;;;17.30;4.80;;;;;;;5.81;56.92;100739.69;5076536;28;20078;-86
2021/03/28 01:34:07;;;;;;;13.88;4.00;;;;;;;5.83;56.72;100736.16;5070098;28;20053;-86
2021/03/28 01:36:40;;;;;;;10.70;3.97;;;;;;;5.85;56.45;100749.19;5075583;28;20045;-85
2021/03/28 01:39:06;;;;;;;;;;;;;;;5.83;56.84;100725.69;5077048;28;20063;-85
2021/03/28 01:41:36;;;;;;;16.10;4.13;;;;;;;5.86;56.36;100732.59;5075332;28;20023;-86
2021/03/28 01:44:11;;;;;;;14.02;3.95;;;;;;;5.86;56.57;100745.66;5076064;28;20044;-86
2021/03/28 01:46:59;;;;;;;22.13;5.20;;;;;;;5.83;56.68;100737.91;5076392;28;20048;-86
2021/03/28 01:49:48;;;;;;;14.45;4.32;;;;;;;5.81;56.58;100737.06;5074992;28;20057;-87
2021/03/28 01:52:41;;;;;;;16.67;4.75;;;;;;;5.80;56.68;100745.81;5076400;28;20052;-86
2021/03/28 01:55:36;;;;;;;14.68;4.47;;;;;;;5.79;57.10;100737.09;5074742;28;20485;-86
2021/03/28 01:58:40;;;;;;;14.30;4.38;;;;;;;5.77;56.97;100738.91;5075064;28;20052;-86
2021/03/28 02:01:19;;;;;;;9.55;3.47;;;;;;;5.79;56.90;100734.50;5054673;28;20053;-86
2021/03/28 02:04:12;;;;;;;14.65;4.75;;;;;;;5.79;56.86;100739.72;5074905;28;20052;-86
2021/03/28 02:06:40;;;;;;;20.45;4.45;;;;;;;5.80;56.71;100732.75;5074895;28;20135;-86
2021/03/28 02:09:15;;;;;;;13.45;4.00;;;;;;;5.80;57.02;100732.75;5075994;28;20049;-86
2021/03/28 02:11:56;;;;;;;18.42;4.93;;;;;;;5.81;56.91;100730.09;5076013;28;20041;-86
2021/03/28 02:14:41;;;;;;;11.93;4.53;;;;;;;5.80;57.21;100733.59;5075603;28;20048;-86
2021/03/28 02:17:52;;;;;;;18.42;4.70;;;;;;;5.78;57.21;100738.00;5074797;28;20075;-86
2021/03/28 02:20:21;;;;;;;18.48;4.40;;;;;;;5.83;57.06;100732.69;5051520;28;20044;-87
2021/03/28 02:22:57;;;;;;;24.30;5.30;;;;;;;5.83;57.13;100727.47;5075755;28;20052;-86
2021/03/28 02:25:46;;;;;;;17.50;5.43;;;;;;;5.82;57.04;100739.66;5074169;28;20056;-87
2021/03/28 02:28:18;;;;;;;21.08;5.53;;;;;;;5.85;57.06;100736.13;5069816;28;20408;-87
2021/03/28 02:30:57;;;;;;;16.83;5.00;;;;;;;5.89;57.01;100724.72;5074169;28;20051;-86
2021/03/28 02:33:30;;;;;;;17.02;4.20;;;;;;;5.91;57.25;100729.91;5075989;28;20060;-87
2021/03/28 02:36:14;;;;;;;16.70;5.20;;;;;;;5.93;56.78;100725.50;5074180;28;20405;-87
2021/03/28 02:39:08;;;;;;;22.63;5.05;;;;;;;5.92;57.01;100718.56;5074430;28;20052;-87
2021/03/28 02:41:52;;;;;;;17.42;4.30;;;;;;;5.92;56.75;100726.38;5074365;28;20072;-86
2021/03/28 02:44:57;;;;;;;14.13;3.75;;;;;;;5.93;56.90;100722.88;5074183;28;20057;-86
2021/03/28 02:47:51;;;;;;;11.65;3.95;;;;;;;5.92;56.64;100719.41;5059885;28;20520;-86
2021/03/28 02:51:14;;;;;;;15.95;4.20;;;;;;;5.92;56.75;100723.78;5074356;28;20049;-86
2021/03/28 02:53:40;;;;;;;;;;;;;;;5.96;56.58;100709.75;5075343;28;20051;-86
2021/03/28 02:56:25;;;;;;;14.00;3.85;;;;;;;5.94;56.74;100707.16;5073822;28;20015;-87
2021/03/28 02:59:10;;;;;;;12.30;3.50;;;;;;;5.96;56.54;100713.22;5073902;28;20059;-87
2021/03/28 03:02:04;;;;;;;15.55;4.57;;;;;;;5.92;56.57;100729.00;5073799;28;20053;-87
2021/03/28 03:04:39;;;;;;;10.75;3.88;;;;;;;5.92;56.68;100726.38;5074694;28;20063;-86
2021/03/28 03:07:11;;;;;;;15.35;4.20;;;;;;;5.92;56.96;100721.16;5073485;28;20060;-87
2021/03/28 03:10:13;;;;;;;15.93;4.07;;;;;;;5.87;56.79;100718.66;5073707;28;20052;-87
2021/03/28 03:13:15;;;;;;;15.70;4.28;;;;;;;5.87;57.07;100713.44;5073682;28;20040;-86
2021/03/28 03:16:06;;;;;;;16.17;4.93;;;;;;;5.86;57.21;100715.19;5073342;28;20052;-86
2021/03/28 03:19:03;;;;;;;15.15;4.40;;;;;;;5.86;57.01;100715.19;5073546;28;20092;-86
2021/03/28 03:22:09;;;;;;;15.38;4.18;;;;;;;5.86;57.04;100715.19;5073333;28;20488;-87
2021/03/28 03:25:18;;;;;;;19.80;4.05;;;;;;;5.90;56.98;100717.75;5074408;28;20045;-86
2021/03/28 03:27:51;;;;;;;10.75;3.53;;;;;;;5.94;56.91;100722.84;5074511;28;20067;-86
2021/03/28 03:30:37;;;;;;;17.90;4.30;;;;;;;5.94;57.21;100724.63;5073284;28;20044;-87
2021/03/28 03:33:31;;;;;;;15.25;3.47;;;;;;;5.93;57.10;100730.72;5074218;28;20412;-87
2021/03/28 03:36:23;;;;;;;9.68;3.15;;;;;;;5.94;56.88;100720.22;5072840;28;20059;-87
2021/03/28 03:39:26;;;;;;;16.92;5.07;;;;;;;5.93;57.40;100713.28;5054534;28;20056;-86
2021/03/28 03:42:09;;;;;;;13.00;3.88;;;;;;;5.96;57.50;100712.34;5072374;28;20102;-86
2021/03/28 03:45:04;;;;;;;14.07;4.10;;;;;;;5.96;57.64;100725.44;5079444;23;20054;-86
2021/03/28 03:47:39;;;;;;;14.68;3.85;;;;;;;5.99;57.59;100727.97;5033767;28;20049;-86
2021/03/28 03:50:14;;;;;;;16.65;4.50;;;;;;;5.99;57.61;100722.75;5016521;28;20053;-86
2021/03/28 03:52:58;;;;;;;18.75;4.43;;;;;;;6.04;57.62;100714.81;5016467;28;20067;-86
2021/03/28 03:55:50;;;;;;;22.38;4.85;;;;;;;6.03;57.77;100708.75;5033445;28;20050;-86
2021/03/28 03:58:26;;;;;;;16.83;4.00;;;;;;;6.05;57.71;100713.97;5033725;28;20485;-86
2021/03/28 04:01:22;;;;;;;13.63;4.63;;;;;;;6.05;57.86;100713.97;5016137;28;20504;-86
2021/03/28 04:03:57;;;;;;;15.20;4.03;;;;;;;6.06;58.00;100716.50;5033586;28;20053;-86
2021/03/28 04:06:50;;;;;;;18.58;4.70;;;;;;;6.08;58.03;100713.88;5033742;28;20433;-86
2021/03/28 04:09:38;;;;;;;16.63;4.78;;;;;;;6.12;57.75;100720.75;5016127;28;20049;-86
2021/03/28 04:12:17;;;;;;;12.88;4.40;;;;;;;6.12;58.06;100716.38;5016224;28;20409;-86
2021/03/28 04:15:06;;;;;;;13.52;4.90;;;;;;;6.13;58.43;100707.63;5033524;28;20057;-86
2021/03/28 04:17:38;;;;;;;18.88;5.28;;;;;;;6.20;58.02;100710.97;5015899;28;20489;-86
2021/03/28 04:20:43;;;;;;;17.65;4.10;;;;;;;6.19;58.83;100714.50;5033517;28;20060;-86
2021/03/28 04:23:21;;;;;;;15.65;4.40;;;;;;;6.25;58.29;100705.66;5033287;28;20052;-86
2021/03/28 04:26:06;;;;;;;16.92;4.43;;;;;;;6.27;58.72;100711.69;5015922;28;20132;-86
2021/03/28 04:29:03;;;;;;;11.95;4.40;;;;;;;6.29;58.77;100711.66;5033590;28;20054;-86
2021/03/28 04:32:15;;;;;;;14.05;4.53;;;;;;;6.32;58.81;100712.44;5015027;28;20053;-86
2021/03/28 04:35:17;;;;;;;10.55;3.97;;;;;;;6.34;59.11;100708.03;5011033;28;20057;-86
2021/03/28 04:37:52;;;;;;;14.32;4.10;;;;;;;6.37;58.85;100709.72;5033460;28;20428;-86
2021/03/28 04:40:36;;;;;;;16.38;4.72;;;;;;;6.41;58.23;100695.66;5015673;28;20509;-86
2021/03/28 04:43:05;;;;;;;;;;;;;;;6.43;59.29;100698.25;5016110;28;20509;-86
2021/03/28 04:45:59;;;;;;;16.98;4.32;;;;;;;6.43;59.10;100693.88;5015281;28;19925;-86
2021/03/28 04:48:31;;;;;;;22.70;5.28;;;;;;;6.48;58.63;100693.75;5033312;28;20056;-86
2021/03/28 04:51:18;;;;;;;11.32;3.70;;;;;;;6.45;59.43;100697.31;5033413;28;20073;-86
2021/03/28 04:54:15;;;;;;;14.13;4.53;;;;;;;6.46;59.56;100708.63;5016965;28;20046;-86
2021/03/28 04:56:59;;;;;;;11.60;4.13;;;;;;;6.47;59.43;100697.28;5019747;28;20056;-86
2021/03/28 04:59:31;;;;;;;12.60;4.57;;;;;;;6.49;59.27;100701.56;5019718;28;20052;-86
2021/03/28 05:02:35;;;;;;;20.90;4.15;;;;;;;6.48;59.73;100699.00;5019296;28;20045;-86
2021/03/28 05:05:07;;;;;;;19.20;4.65;;;;;;;6.51;59.67;100699.75;5019308;28;20050;-86
2021/03/28 05:07:42;;;;;;;11.70;4.07;;;;;;;6.54;59.34;100705.84;5019490;28;20520;-86
2021/03/28 05:10:08;;;;;;;14.02;4.30;;;;;;;6.55;59.16;100707.53;5036930;28;20421;-86
2021/03/28 05:13:02;;;;;;;12.48;3.97;;;;;;;6.53;59.63;100704.97;5019434;28;20094;-86
2021/03/28 05:15:49;;;;;;;15.95;3.85;;;;;;;6.56;59.24;100715.34;5036638;28;20060;-86
2021/03/28 05:18:39;;;;;;;16.13;4.57;;;;;;;6.54;60.22;100701.44;5019212;28;20057;-86
2021/03/28 05:21:21;;;;;;;12.38;3.72;;;;;;;6.57;60.13;100705.75;5036686;28;20050;-86
2021/03/28 05:23:47;;;;;;;17.23;4.60;;;;;;;6.60;59.49;100703.06;5036584;28;20057;-86
2021/03/28 05:26:22;;;;;;;10.52;3.65;;;;;;;6.61;59.67;100708.25;5036578;28;20433;-86
2021/03/28 05:29:09;;;;;;;14.27;4.38;;;;;;;6.60;60.51;100703.91;5019217;28;20064;-86
2021/03/28 05:32:04;;;;;;;12.13;4.50;;;;;;;6.61;60.74;100702.16;5036653;28;20053;-86
2021/03/28 05:34:58;;;;;;;17.85;4.35;;;;;;;6.62;60.49;100699.50;4948899;28;20055;-86
2021/03/28 05:37:57;;;;;;;18.35;4.32;;;;;;;6.60;60.56;100706.53;5036497;28;20045;-86
2021/03/28 05:40:41;;;;;;;10.50;4.28;;;;;;;6.61;60.44;100696.91;5035774;28;20049;-86
2021/03/28 05:43:46;;;;;;;14.70;4.82;;;;;;;6.64;59.91;100702.94;5018776;28;20053;-86
2021/03/28 05:46:46;;;;;;;11.25;3.67;;;;;;;6.61;61.51;100700.41;4936830;29;20047;-86
2021/03/28 05:49:26;;;;;;;9.20;4.20;;;;;;;6.65;60.82;100699.44;4889833;29;20051;-86
2021/03/28 05:52:17;;;;;;;13.95;4.60;;;;;;;6.65;61.61;100694.19;5015258;28;20049;-86
2021/03/28 05:54:46;;;;;;;14.25;4.38;;;;;;;6.71;61.15;100687.09;5036059;28;20132;-86
2021/03/28 05:57:18;;;;;;;21.70;5.32;;;;;;;6.73;61.35;100694.00;5018441;28;20049;-86
2021/03/28 06:00:15;;;;;;;13.53;4.10;;;;;;;6.76;62.25;100685.19;5035978;28;20049;-86
2021/03/28 06:03:09;;;;;;;12.70;4.18;;;;;;;6.82;62.56;100682.44;5018615;28;20294;-86
2021/03/28 06:05:57;;;;;;;19.02;4.13;;;;;;;6.89;61.68;100689.22;5017454;28;20148;-86
2021/03/28 06:09:01;;;;;;;14.93;4.43;;;;;;;6.94;62.26;100691.72;5035966;28;20045;-86
2021/03/28 06:12:03;;;;;;;12.13;3.80;;;;;;;7.00;62.20;100698.56;5018342;28;20053;-86
2021/03/28 06:14:29;;;;;;;13.45;4.35;;;;;;;7.10;61.32;100699.16;5035363;28;20050;-86
2021/03/28 06:17:15;;;;;;;11.75;3.55;;;;;;;7.12;62.05;100703.47;5035887;28;20064;-86
2021/03/28 06:20:23;;;;;;;14.40;3.83;;;;;;;7.17;61.87;100706.81;5018003;28;20049;-86
2021/03/28 06:23:10;;;;;;;11.43;3.65;;;;;;;7.26;61.44;100705.66;5005457;28;20513;-86
2021/03/28 06:25:56;;;;;;;17.92;4.70;;;;;;;7.30;62.15;100698.59;5035259;28;20418;-86
2021/03/28 06:28:54;;;;;;;16.70;4.35;;;;;;;7.36;61.89;100706.28;5035299;28;20049;-86
2021/03/28 06:32:01;;;;;;;14.55;4.35;;;;;;;7.41;62.61;100707.00;5018016;28;20053;-86
2021/03/28 06:34:49;;;;;;;13.48;4.28;;;;;;;7.50;62.09;100708.50;4985194;28;20514;-86
2021/03/28 06:37:21;;;;;;;12.80;3.25;;;;;;;7.59;61.47;100709.16;5017750;28;20053;-86
2021/03/28 06:40:02;;;;;;;16.70;4.13;;;;;;;7.63;61.46;100714.25;5035429;28;20049;-86
2021/03/28 06:42:47;;;;;;;11.60;3.40;;;;;;;7.67;61.90;100717.66;5017695;28;20049;-86
2021/03/28 06:45:44;;;;;;;10.75;3.60;;;;;;;7.71;62.07;100721.91;5034757;28;20049;-86
2021/03/28 06:48:13;;;;;;;16.85;4.07;;;;;;;7.80;61.16;100720.75;5017659;28;20060;-86
2021/03/28 06:51:01;;;;;;;15.05;4.45;;;;;;;7.83;61.35;100718.06;5017554;28;20049;-86
2021/03/28 06:54:08;;;;;;;17.63;3.63;;;;;;;7.87;62.09;100711.81;5018945;28;20049;-86
2021/03/28 06:57:02;;;;;;;14.82;4.05;;;;;;;7.91;61.81;100710.81;5034972;28;20085;-86
2021/03/28 06:59:28;;;;;;;14.00;3.88;;;;;;;7.99;61.34;100699.25;5035057;28;20490;-86
2021/03/28 07:02:06;;;;;;;15.00;3.95;;;;;;;8.01;61.82;100702.66;5034853;28;20046;-86
2021/03/28 07:05:20;;;;;;;12.18;4.47;;;;;;;8.07;61.56;100705.06;5034427;28;20099;-86
2021/03/28 07:08:13;;;;;;;13.20;4.30;;;;;;;8.13;61.55;100707.53;4935341;29;20047;-86
2021/03/28 07:10:42;;;;;;;15.45;4.40;;;;;;;8.24;61.33;100709.81;4935747;29;20048;-86
2021/03/28 07:13:19;;;;;;;13.63;3.83;;;;;;;8.29;61.65;100714.91;5001150;28;20065;-86
2021/03/28 07:16:22;;;;;;;12.35;3.40;;;;;;;8.37;62.04;100722.53;5017365;28;20053;-86
2021/03/28 07:19:13;;;;;;;11.38;3.63;;;;;;;8.47;61.56;100716.06;5016424;28;20049;-86
2021/03/28 07:22:04;;;;;;;18.67;4.22;;;;;;;8.54;61.54;100727.25;5034252;28;20041;-86
2021/03/28 07:24:45;;;;;;;10.35;3.70;;;;;;;8.63;61.42;100720.84;5034239;28;20049;-86
2021/03/28 07:27:38;;;;;;;8.70;3.45;;;;;;;8.67;61.06;100715.44;5034335;28;20057;-86
2021/03/28 07:30:29;;;;;;;11.60;3.70;;;;;;;8.73;60.92;100715.25;5016867;28;20059;-86
2021/03/28 07:33:07;;;;;;;12.93;3.97;;;;;;;8.80;60.34;100720.28;5034308;28;20284;-85
2021/03/28 07:35:52;;;;;;;12.05;3.95;;;;;;;8.84;60.71;100719.25;5016830;28;20049;-85
2021/03/28 07:38:56;;;;;;;8.93;3.47;;;;;;;8.90;60.68;100713.78;5017092;28;20058;-85
2021/03/28 07:41:49;;;;;;;11.32;3.40;;;;;;;8.98;60.58;100708.28;5016723;28;20053;-85
2021/03/28 07:44:34;;;;;;;13.25;3.17;;;;;;;9.06;60.59;100708.00;5016178;28;20045;-85
2021/03/28 07:47:37;;;;;;;10.85;3.55;;;;;;;9.12;60.38;100706.03;5016734;28;20045;-85
2021/03/28 07:50:22;;;;;;;12.32;3.10;;;;;;;9.18;60.41;100710.22;5016449;28;20065;-85
2021/03/28 07:53:10;;;;;;;13.07;3.28;;;;;;;9.23;59.69;100713.53;5033957;28;20053;-86
2021/03/28 07:56:24;;;;;;;12.02;3.05;;;;;;;9.27;59.83;100711.63;5016305;28;20128;-85
2021/03/28 07:59:03;;;;;;;13.43;2.90;;;;;;;9.31;59.70;100707.97;4980080;28;20140;-85
2021/03/28 08:01:56;;;;;;;11.85;3.00;;;;;;;9.35;59.76;100714.00;5016392;28;20045;-85
2021/03/28 08:04:41;;;;;;;12.80;3.83;;;;;;;9.36;59.31;100707.81;5015952;28;20061;-85
2021/03/28 08:07:31;;;;;;;15.40;3.40;;;;;;;9.38;59.30;100708.63;5016226;28;20068;-85
2021/03/28 08:10:07;;;;;;;11.32;3.03;;;;;;;9.48;60.08;100710.00;5033874;28;20065;-85
2021/03/28 08:12:39;;;;;;;13.75;3.35;;;;;;;9.55;59.71;100720.28;5016172;28;20060;-85
2021/03/28 08:15:30;;;;;;;16.27;3.10;;;;;;;9.60;59.76;100713.94;5016063;28;20053;-85
2021/03/28 08:18:26;;;;;;;15.32;3.25;;;;;;;9.66;59.02;100704.97;5016093;28;20053;-85
2021/03/28 08:21:14;;;;;;;13.13;2.90;;;;;;;9.82;59.81;100704.38;5033388;28;20414;-85
2021/03/28 08:24:14;;;;;;;14.32;3.17;;;;;;;9.89;59.07;100708.50;5015667;28;20528;-88
2021/03/28 08:27:18;;;;;;;7.35;2.95;;;;;;;9.99;58.50;100709.00;5016109;28;20050;-85
2021/03/28 08:30:29;;;;;;;11.63;2.88;;;;;;;10.08;59.32;100697.22;5015677;28;20049;-85
2021/03/28 08:33:15;;;;;;;11.25;2.97;;;;;;;10.14;58.16;100712.78;4991726;28;20128;-85
2021/03/28 08:35:56;;;;;;;5.53;2.65;;;;;;;10.23;58.29;100701.03;5015906;28;20049;-85
2021/03/28 08:39:03;;;;;;;12.88;2.78;;;;;;;10.26;58.52;100707.03;5015921;28;20045;-85
2021/03/28 08:41:44;;;;;;;9.07;3.00;;;;;;;10.33;57.67;100707.66;5015774;28;20438;-85
2021/03/28 08:44:43;;;;;;;10.57;3.15;;;;;;;10.36;58.11;100709.28;5015286;28;20060;-85
2021/03/28 08:47:21;;;;;;;16.05;3.63;;;;;;;10.45;57.84;100713.34;5015794;28;20049;-85
2021/03/28 08:50:22;;;;;;;8.63;3.03;;;;;;;10.50;58.13;100708.78;5015691;28;20056;-85
2021/03/28 08:53:09;;;;;;;14.10;3.42;;;;;;;10.52;57.20;100706.91;4933962;29;20417;-85
2021/03/28 08:56:06;;;;;;;10.60;2.65;;;;;;;10.56;58.10;100703.22;5009334;28;20128;-85
2021/03/28 08:58:42;;;;;;;14.82;2.38;;;;;;;10.65;58.76;100708.13;5016116;28;20410;-85
2021/03/28 09:01:23;;;;;;;15.52;3.67;;;;;;;10.70;59.05;100713.19;5016119;28;20045;-85
2021/03/28 09:04:02;;;;;;;8.10;2.92;;;;;;;10.79;57.95;100707.53;5033164;28;20050;-85
2021/03/28 09:06:38;;;;;;;12.63;3.63;;;;;;;10.90;58.24;100700.94;5015761;28;20053;-85
2021/03/28 09:09:17;;;;;;;12.20;3.50;;;;;;;10.96;57.29;100703.31;5032981;28;20487;-86
2021/03/28 09:12:13;;;;;;;16.98;3.40;;;;;;;11.04;57.34;100711.75;5033034;28;20046;-85
2021/03/28 09:14:58;;;;;;;11.10;2.85;;;;;;;11.15;57.61;100711.28;5015407;28;20076;-85
2021/03/28 09:17:59;;;;;;;9.73;2.63;;;;;;;11.20;57.25;100698.75;5015449;28;20053;-85
2021/03/28 09:20:33;;;;;;;14.15;3.22;;;;;;;11.28;57.52;100698.41;4945780;28;20063;-86
2021/03/28 09:23:23;;;;;;;10.48;3.03;;;;;;;11.34;57.14;100707.81;5015692;28;20057;-85
2021/03/28 09:26:05;;;;;;;13.88;3.08;;;;;;;11.43;57.20;100694.22;5032910;28;20049;-85
2021/03/28 09:28:37;;;;;;;16.38;3.40;;;;;;;11.52;57.49;100694.72;5015424;28;20057;-85
2021/03/28 09:31:06;;;;;;;11.40;3.25;;;;;;;11.58;57.33;100692.66;5015470;28;20076;-85
2021/03/28 09:34:10;;;;;;;13.30;3.63;;;;;;;11.64;57.64;100698.56;5015185;28;20494;-86
2021/03/28 09:36:46;;;;;;;7.13;2.28;;;;;;;11.78;58.06;100688.22;5015182;28;20494;-85
2021/03/28 09:39:48;;;;;;;9.27;3.20;;;;;;;11.84;56.92;100690.59;5032674;28;20053;-86
2021/03/28 09:42:42;;;;;;;11.10;2.97;;;;;;;12.00;57.70;100679.28;5018887;28;20053;-85
2021/03/28 09:45:39;;;;;;;9.77;3.03;;;;;;;12.10;56.67;100675.31;5092685;23;20515;-85
2021/03/28 09:48:05;;;;;;;10.20;2.85;;;;;;;12.23;56.63;100678.19;5077083;28;20040;-85
2021/03/28 09:50:58;;;;;;;10.80;2.97;;;;;;;12.28;56.29;100672.72;5076676;28;20059;-84
2021/03/28 09:53:32;;;;;;;10.50;3.20;;;;;;;12.40;57.00;100655.38;5076261;28;20044;-86
2021/03/28 09:56:16;;;;;;;10.20;3.35;;;;;;;12.46;54.74;100670.06;5056422;28;20283;-85
2021/03/28 09:59:15;;;;;;;11.13;2.88;;;;;;;12.59;56.32;100660.59;5058541;28;20064;-85
2021/03/28 10:01:44;;;;;;;8.50;2.72;;;;;;;12.72;56.37;100663.47;5058128;28;20045;-85
2021/03/28 10:04:25;;;;;;;12.32;2.92;;;;;;;12.80;55.68;100680.69;5056339;28;20060;-85
2021/03/28 10:06:58;;;;;;;10.02;3.20;;;;;;;12.89;55.75;100685.50;5058433;28;20509;-85
2021/03/28 10:09:38;;;;;;;10.05;2.92;;;;;;;12.99;55.78;100668.25;5055824;28;20131;-85
2021/03/28 10:12:10;;;;;;;10.50;3.13;;;;;;;13.05;55.09;100661.78;5057223;28;20072;-85
2021/03/28 10:14:44;;;;;;;12.40;3.20;;;;;;;13.11;54.29;100647.38;5057399;28;20059;-85
2021/03/28 10:17:39;;;;;;;19.77;3.58;;;;;;;13.19;54.73;100661.03;5057446;28;20049;-85
2021/03/28 10:20:25;;;;;;;7.88;2.72;;;;;;;13.25;54.06;100657.22;5056757;28;20049;-85
2021/03/28 10:23:06;;;;;;;14.15;3.15;;;;;;;13.33;52.57;100657.66;5057571;28;20136;-85
2021/03/28 10:26:04;;;;;;;10.70;2.72;;;;;;;13.40;52.13;100660.81;5058712;28;20476;-85
2021/03/28 10:28:53;;;;;;;8.48;2.50;;;;;;;13.58;53.86;100648.44;5058814;28;20084;-85
2021/03/28 10:31:25;;;;;;;9.52;2.38;;;;;;;13.72;52.57;100646.81;5058114;28;20049;-85
2021/03/28 10:34:16;;;;;;;9.07;2.55;;;;;;;13.86;53.42;100648.69;5055943;28;20524;-85
2021/03/28 10:37:20;;;;;;;9.23;2.53;;;;;;;13.92;50.00;100651.81;5057267;28;20075;-85
2021/03/28 10:40:07;;;;;;;9.98;2.60;;;;;;;14.00;51.65;100645.22;5057507;28;20059;-86
2021/03/28 10:42:52;;;;;;;13.35;2.90;;;;;;;13.99;50.62;100649.69;5056446;28;20492;-86
2021/03/28 10:45:25;;;;;;;12.10;3.03;;;;;;;14.03;52.62;100645.91;5056081;28;20055;-86
2021/03/28 10:48:13;;;;;;;11.68;3.25;;;;;;;13.95;49.58;100664.03;5057940;28;20136;-86
2021/03/28 10:50:46;;;;;;;12.57;3.47;;;;;;;13.99;50.84;100648.81;5057641;28;20120;-85
2021/03/28 10:53:41;;;;;;;11.68;3.00;;;;;;;13.99;51.45;100641.75;5058683;28;20055;-86
2021/03/28 10:56:42;;;;;;;9.05;2.50;;;;;;;14.01;51.25;100641.63;5056113;28;20049;-85
2021/03/28 10:59:34;;;;;;;8.57;2.65;;;;;;;14.02;52.00;100652.13;5055132;28;20463;-86
2021/03/28 11:02:28;;;;;;;6.90;2.35;;;;;;;14.06;50.72;100635.13;5055667;28;20041;-86
2021/03/28 11:05:39;;;;;;;11.20;2.67;;;;;;;14.11;51.45;100637.53;5055804;28;20055;-86
2021/03/28 11:08:30;;;;;;;11.68;2.50;;;;;;;14.17;51.86;100631.03;5057216;28;20045;-86
2021/03/28 11:11:07;;;;;;;9.63;2.88;;;;;;;14.26;52.29;100638.44;5056255;28;20076;-86
2021/03/28 11:13:57;;;;;;;15.25;3.05;;;;;;;14.23;48.68;100640.38;5058214;28;20049;-85
2021/03/28 11:16:50;;;;;;;8.60;2.60;;;;;;;14.31;48.39;100640.78;5057555;28;20045;-85
2021/03/28 11:19:54;;;;;;;9.43;2.80;;;;;;;14.42;49.60;100667.50;5055928;28;20053;-85
2021/03/28 11:22:46;;;;;;;11.23;2.53;;;;;;;14.58;48.52;100640.97;5024753;28;20099;-86
2021/03/28 11:25:22;;;;;;;14.38;2.75;;;;;;;14.77;48.58;100645.19;5055107;28;20399;-86
2021/03/28 11:28:05;;;;;;;9.02;2.67;;;;;;;14.97;49.55;100630.72;5056365;28;20055;-88
2021/03/28 11:30:36;;;;;;;7.40;2.65;;;;;;;15.18;48.29;100625.03;5057530;28;20059;-85
2021/03/28 11:33:13;;;;;;;8.77;2.58;;;;;;;15.27;46.56;100630.69;5055167;28;20118;-85
2021/03/28 11:35:44;;;;;;;13.70;3.20;;;;;;;15.35;47.17;100639.03;5055548;28;20060;-85
2021/03/28 11:38:15;;;;;;;9.65;2.60;;;;;;;15.31;46.85;100635.72;5054769;28;20049;-85
2021/03/28 11:41:13;;;;;;;12.23;2.72;;;;;;;15.23;45.09;100643.31;5057215;28;20076;-85
2021/03/28 11:43:57;;;;;;;9.15;2.03;;;;;;;15.16;45.16;100634.88;5055108;28;20053;-86
2021/03/28 11:46:26;;;;;;;;;;;;;;;15.10;45.25;100641.41;5054492;28;20490;-86
2021/03/28 11:48:52;;;;;;;8.43;2.40;;;;;;;15.09;47.96;100637.06;5053583;28;19921;-85
2021/03/28 11:51:18;;;;;;;10.00;2.35;;;;;;;15.02;47.43;100633.09;5057084;28;20045;-85
2021/03/28 11:53:47;;;;;;;9.07;3.03;;;;;;;14.96;47.29;100631.66;5054563;28;20053;-86
2021/03/28 11:56:40;;;;;;;7.07;2.40;;;;;;;14.83;44.01;100638.66;5055956;28;20106;-86
2021/03/28 11:59:31;;;;;;;9.15;2.03;;;;;;;14.83;44.53;100643.97;5055204;28;20052;-85
2021/03/28 12:02:03;;;;;;;7.53;2.42;;;;;;;14.88;47.25;100633.91;5053808;28;20400;-85
2021/03/28 12:04:46;;;;;;;11.77;2.33;;;;;;;14.83;44.88;100643.97;5054741;28;20053;-85
2021/03/28 12:07:28;;;;;;;11.18;2.75;;;;;;;14.75;44.49;100654.13;5056643;28;20057;-85
2021/03/28 12:10:00;;;;;;;9.68;2.35;;;;;;;14.77;45.65;100649.66;5055369;28;20069;-86
2021/03/28 12:12:51;;;;;;;5.72;2.05;;;;;;;14.64;44.07;100666.25;5055527;28;20045;-85
2021/03/28 12:15:45;;;;;;;5.82;2.30;;;;;;;14.55;44.02;100648.25;5055413;28;20045;-85
2021/03/28 12:18:20;;;;;;;11.30;2.92;;;;;;;14.48;43.26;100647.75;5058351;28;20132;-86
2021/03/28 12:21:07;;;;;;;8.82;2.13;;;;;;;14.39;44.43;100658.91;5054283;28;20163;-86
2021/03/28 12:23:36;;;;;;;10.55;2.30;;;;;;;14.40;45.75;100650.88;5054054;28;20049;-87
2021/03/28 12:26:27;;;;;;;10.75;2.33;;;;;;;14.32;45.81;100661.06;5054370;28;20057;-87
2021/03/28 12:29:02;;;;;;;6.90;2.65;;;;;;;14.30;46.16;100673.53;5055604;28;20136;-85
2021/03/28 12:31:35;;;;;;;9.68;2.70;;;;;;;14.22;45.07;100666.03;5052191;28;20072;-88
2021/03/28 12:34:08;;;;;;;6.63;2.20;;;;;;;14.18;46.42;100659.22;5051967;28;20077;-88
2021/03/28 12:36:46;;;;;;;5.47;2.30;;;;;;;14.14;46.45;100668.28;5053254;28;20053;-89
2021/03/28 12:39:18;;;;;;;9.90;2.42;;;;;;;14.12;47.05;100671.00;5052447;28;20113;-88
2021/03/28 12:42:02;;;;;;;12.30;2.88;;;;;;;14.03;46.17;100671.53;5053336;28;20049;-88
2021/03/28 12:44:34;;;;;;;9.10;2.28;;;;;;;14.04;47.36;100662.63;5052926;28;20045;-87
2021/03/28 12:47:06;;;;;;;13.15;2.53;;;;;;;13.98;47.87;100666.47;5052352;28;20106;-88
2021/03/28 12:49:47;;;;;;;6.82;1.80;;;;;;;13.91;46.93;100673.91;5052251;28;20092;-88